KCSQ/CSQ METAR and TAF weather

Enter ICAO airport designator
Station Type Date Time Source
KCSQ METAR 2019/08/19 12:35 UTC NOAA

KCSQ 191235Z AUTO 04006KT 19/19 A3001 RMK AO2


Station Type Date Time Source
KCSQ Decoded METAR 2019/08/19 12:35 UTC NOAA

Station name not available
Aug 19, 2019 - 08:35 AM EDT / 2019.08.19 1235 UTC
Wind: from the NE (040 degrees) at 7 MPH (6 KT):0
Temperature: 66 F (19 C)
Dew Point: 66 F (19 C)
Relative Humidity: 100%
Pressure (altimeter): 30.01 in. Hg (1016 hPa)
ob: KCSQ 191235Z AUTO 04006KT 19/19 A3001 RMK AO2
cycle: 12

Station Type Date Time Source
KCSQ TAF UTC NOAA

Error!

Example: see airport list